Time;durP1;ratioP1;P1;durP2;ratioP2;P2;SDS_P1;SDS_P2;PMS_P1;PMS_P2;Temp;Humidity;BMP_temperature;BMP_pressure;BME280_temperature;BME280_humidity;BME280_pressure;Samples;Min_cycle;Max_cycle;Signal;HPM_P1;HPM_P2
2022/03/06 00:02:09;;;;;;;16.65;10.88;;;1.10;99.90;;;;;;5048936;28;20041;-67
2022/03/06 00:04:35;;;;;;;16.67;10.90;;;1.10;99.90;;;;;;5051289;28;20411;-66
2022/03/06 00:07:01;;;;;;;14.80;9.93;;;1.10;99.90;;;;;;5048259;28;20116;-67
2022/03/06 00:09:26;;;;;;;18.08;10.65;;;1.20;99.90;;;;;;5032932;28;20057;-66
2022/03/06 00:11:53;;;;;;;16.52;9.57;;;1.30;99.90;;;;;;5050155;28;20041;-66
2022/03/06 00:14:19;;;;;;;14.18;9.68;;;1.30;99.90;;;;;;5030079;28;20045;-66
2022/03/06 00:16:45;;;;;;;13.10;8.48;;;1.30;99.90;;;;;;5044119;28;20110;-67
2022/03/06 00:19:10;;;;;;;17.38;9.70;;;1.70;99.90;;;;;;5031604;28;20067;-66
2022/03/06 00:21:36;;;;;;;16.17;9.40;;;1.50;99.90;;;;;;5031154;28;20056;-67
2022/03/06 00:24:02;;;;;;;14.10;9.40;;;1.50;99.90;;;;;;5048472;28;20052;-67
2022/03/06 00:26:28;;;;;;;14.15;8.40;;;1.50;99.90;;;;;;5030796;28;20172;-66
2022/03/06 00:28:54;;;;;;;12.52;8.73;;;1.50;99.90;;;;;;5040150;28;20530;-67
2022/03/06 00:31:22;;;;;;;15.40;9.13;;;1.50;99.90;;;;;;5040175;28;20045;-67
2022/03/06 00:33:49;;;;;;;16.38;8.75;;;1.90;99.90;;;;;;5044569;28;20044;-66
2022/03/06 00:36:14;;;;;;;14.55;7.88;;;1.50;99.90;;;;;;5048979;28;20061;-66
2022/03/06 00:38:40;;;;;;;14.15;8.23;;;1.50;99.90;;;;;;5041655;28;20051;-66
2022/03/06 00:41:06;;;;;;;14.55;8.55;;;1.50;99.90;;;;;;5041964;28;20533;-67
2022/03/06 00:43:31;;;;;;;13.13;7.97;;;1.50;99.90;;;;;;5030631;28;20411;-66
2022/03/06 00:45:57;;;;;;;17.13;8.23;;;1.50;99.90;;;;;;5014352;28;20037;-65
2022/03/06 00:48:22;;;;;;;17.85;8.40;;;1.50;99.90;;;;;;5032288;28;20110;-66
2022/03/06 00:50:48;;;;;;;18.10;8.60;;;1.40;99.90;;;;;;5035933;28;20041;-67
2022/03/06 00:53:13;;;;;;;12.18;7.88;;;1.40;99.90;;;;;;5047872;28;20045;-66
2022/03/06 00:55:39;;;;;;;13.80;8.07;;;1.40;99.90;;;;;;5030439;28;20056;-66
2022/03/06 00:58:05;;;;;;;11.57;7.80;;;1.40;99.90;;;;;;5029461;28;20041;-66
2022/03/06 01:00:40;;;;;;;12.93;7.90;;;1.40;99.90;;;;;;5031015;28;20132;-67
2022/03/06 01:03:10;;;;;;;17.08;7.90;;;1.40;99.90;;;;;;5030217;28;20084;-66
2022/03/06 01:05:36;;;;;;;15.43;7.25;;;1.40;99.90;;;;;;5035469;28;20589;-66
2022/03/06 01:08:04;;;;;;;13.52;7.53;;;1.40;99.90;;;;;;5045252;28;20037;-66
2022/03/06 01:10:30;;;;;;;13.18;7.82;;;1.40;99.90;;;;;;5015335;28;20061;-66
2022/03/06 01:12:55;;;;;;;12.52;7.07;;;1.40;99.90;;;;;;5030230;28;20046;-67
2022/03/06 01:15:22;;;;;;;11.07;7.32;;;1.40;99.90;;;;;;5000345;28;20453;-65
2022/03/06 01:17:47;;;;;;;16.33;7.65;;;1.40;99.90;;;;;;5050308;28;20139;-66
2022/03/06 01:20:13;;;;;;;15.50;7.82;;;1.40;99.90;;;;;;5021988;28;20049;-66
2022/03/06 01:22:39;;;;;;;11.07;7.13;;;1.40;99.90;;;;;;5041362;28;20120;-67
2022/03/06 01:25:05;;;;;;;14.25;7.07;;;1.50;99.90;;;;;;5049624;28;20624;-67
2022/03/06 01:27:31;;;;;;;14.85;7.45;;;1.40;99.90;;;;;;5029856;28;20569;-66
2022/03/06 01:29:57;;;;;;;12.30;6.68;;;1.40;99.90;;;;;;5019067;28;20044;-66
2022/03/06 01:32:23;;;;;;;15.30;7.97;;;1.50;99.90;;;;;;5033515;28;20045;-67
2022/03/06 01:34:49;;;;;;;14.70;7.13;;;1.50;99.90;;;;;;5035331;28;20566;-67
2022/03/06 01:37:15;;;;;;;13.52;6.88;;;1.50;99.90;;;;;;5025220;28;20132;-66
2022/03/06 01:39:41;;;;;;;12.00;6.43;;;1.50;99.90;;;;;;5046324;28;20126;-67
2022/03/06 01:42:07;;;;;;;14.98;7.85;;;1.40;99.90;;;;;;5003452;28;20137;-66
2022/03/06 01:44:33;;;;;;;10.60;7.10;;;1.40;99.90;;;;;;5015033;28;20041;-66
2022/03/06 01:46:58;;;;;;;10.88;7.78;;;1.40;99.90;;;;;;5015700;28;20368;-66
2022/03/06 01:49:24;;;;;;;13.70;7.35;;;1.40;99.90;;;;;;5036590;28;20041;-66
2022/03/06 01:51:49;;;;;;;13.38;7.22;;;1.40;99.90;;;;;;5034286;28;20041;-66
2022/03/06 01:54:15;;;;;;;12.63;7.40;;;1.40;99.90;;;;;;5049933;28;20041;-65
2022/03/06 01:56:42;;;;;;;12.38;6.82;;;1.40;99.90;;;;;;5033861;28;20123;-66
2022/03/06 01:59:09;;;;;;;12.80;7.07;;;1.40;99.90;;;;;;5033523;28;20447;-66
2022/03/06 02:01:35;;;;;;;11.75;6.90;;;1.40;99.90;;;;;;5028638;28;20168;-66
2022/03/06 02:04:01;;;;;;;14.07;6.97;;;1.30;99.90;;;;;;5052770;28;20128;-66
2022/03/06 02:06:28;;;;;;;13.57;6.82;;;1.30;99.90;;;;;;5052738;28;20040;-67
2022/03/06 02:08:54;;;;;;;10.60;5.07;;;1.30;99.90;;;;;;5016323;28;20052;-67
2022/03/06 02:11:22;;;;;;;11.43;6.47;;;1.30;99.90;;;;;;5050631;28;20048;-67
2022/03/06 02:13:48;;;;;;;9.85;6.15;;;1.30;99.90;;;;;;5015163;28;20053;-67
2022/03/06 02:16:13;;;;;;;11.77;5.25;;;1.30;99.90;;;;;;5024337;28;20090;-67
2022/03/06 02:18:39;;;;;;;16.30;5.40;;;1.30;99.90;;;;;;5050160;28;20040;-66
2022/03/06 02:21:13;;;;;;;9.50;5.82;;;1.30;99.90;;;;;;5033007;28;20120;-66
2022/03/06 02:23:39;;;;;;;10.95;5.15;;;1.30;99.90;;;;;;5042448;28;20044;-66
2022/03/06 02:26:06;;;;;;;9.23;5.10;;;1.40;99.90;;;;;;5048679;28;20045;-66
2022/03/06 02:28:32;;;;;;;10.50;5.45;;;1.40;99.90;;;;;;5052369;28;20197;-65
2022/03/06 02:30:58;;;;;;;10.15;4.80;;;1.40;99.90;;;;;;5045636;28;20076;-66
2022/03/06 02:33:24;;;;;;;9.25;4.80;;;1.40;99.90;;;;;;5044204;28;20056;-66
2022/03/06 02:35:50;;;;;;;14.20;4.88;;;1.40;99.90;;;;;;5052488;28;20063;-67
2022/03/06 02:38:15;;;;;;;8.93;4.30;;;1.40;99.90;;;;;;5051648;28;20064;-66
2022/03/06 02:40:42;;;;;;;8.93;5.13;;;1.40;99.90;;;;;;5039324;28;20041;-67
2022/03/06 02:43:09;;;;;;;9.50;4.90;;;1.40;99.90;;;;;;5014941;28;20085;-66
2022/03/06 02:45:35;;;;;;;8.20;5.00;;;1.50;99.90;;;;;;5036707;28;20049;-66
2022/03/06 02:48:02;;;;;;;9.77;4.85;;;1.40;99.90;;;;;;5046412;28;20046;-67
2022/03/06 02:50:31;;;;;;;9.18;4.72;;;1.40;99.90;;;;;;5051088;28;20084;-66
2022/03/06 02:52:59;;;;;;;8.27;4.55;;;1.40;99.90;;;;;;5048135;28;20044;-65
2022/03/06 02:55:25;;;;;;;8.75;4.97;;;1.50;99.90;;;;;;5049203;28;20487;-66
2022/03/06 02:57:51;;;;;;;9.40;4.80;;;1.40;99.90;;;;;;5047208;28;20052;-66
2022/03/06 03:00:19;;;;;;;11.13;5.13;;;1.50;99.90;;;;;;5050717;28;20056;-66
2022/03/06 03:02:47;;;;;;;12.57;5.18;;;1.50;99.90;;;;;;5051331;28;20049;-66
2022/03/06 03:05:13;;;;;;;13.27;5.45;;;1.50;99.90;;;;;;5033617;28;20064;-67
2022/03/06 03:07:44;;;;;;;12.10;5.05;;;1.50;99.90;;;;;;5051369;28;20048;-67
2022/03/06 03:10:13;;;;;;;8.95;4.53;;;1.40;99.90;;;;;;5033509;28;20128;-67
2022/03/06 03:12:39;;;;;;;9.20;5.55;;;1.40;99.90;;;;;;5034541;28;20041;-66
2022/03/06 03:15:06;;;;;;;10.43;5.50;;;1.40;99.90;;;;;;5032317;28;20100;-66
2022/03/06 03:17:32;;;;;;;10.13;4.82;;;1.50;99.90;;;;;;5015109;28;20037;-66
2022/03/06 03:19:57;;;;;;;10.02;5.88;;;1.50;99.90;;;;;;5031657;28;20049;-66
2022/03/06 03:22:23;;;;;;;14.07;5.28;;;1.50;99.90;;;;;;5038128;28;20053;-66
2022/03/06 03:24:49;;;;;;;13.27;5.03;;;1.50;99.90;;;;;;5012794;28;20064;-67
2022/03/06 03:27:14;;;;;;;10.30;5.30;;;1.50;99.90;;;;;;5052666;28;20120;-66
2022/03/06 03:29:40;;;;;;;8.13;4.68;;;1.50;99.90;;;;;;5018454;28;20357;-66
2022/03/06 03:32:06;;;;;;;16.48;5.25;;;1.50;99.90;;;;;;5052252;28;20048;-67
2022/03/06 03:34:32;;;;;;;12.40;5.22;;;1.40;99.90;;;;;;5055502;28;20060;-66
2022/03/06 03:36:57;;;;;;;10.05;4.82;;;1.40;99.90;;;;;;5051514;28;20046;-66
2022/03/06 03:39:23;;;;;;;14.60;5.78;;;1.40;99.90;;;;;;5055006;28;20049;-67
2022/03/06 03:41:49;;;;;;;12.00;5.22;;;1.40;99.90;;;;;;5054254;28;20045;-65
2022/03/06 03:44:15;;;;;;;10.43;5.65;;;1.40;99.90;;;;;;5035670;28;20053;-66
2022/03/06 03:46:40;;;;;;;9.65;4.60;;;1.40;99.90;;;;;;5041494;28;20049;-66
2022/03/06 03:49:06;;;;;;;12.27;4.88;;;1.40;99.90;;;;;;5036023;28;20052;-67
2022/03/06 03:51:32;;;;;;;11.27;6.28;;;1.30;99.90;;;;;;5035598;28;20471;-66
2022/03/06 03:53:58;;;;;;;12.68;5.32;;;1.30;99.90;;;;;;5037866;28;20495;-67
2022/03/06 03:56:23;;;;;;;9.27;4.95;;;1.20;99.90;;;;;;5050850;28;20042;-66
2022/03/06 03:58:50;;;;;;;10.85;5.70;;;1.20;99.90;;;;;;5039788;28;20047;-67
2022/03/06 04:01:19;;;;;;;15.80;6.07;;;1.10;99.90;;;;;;5054374;28;20124;-66
2022/03/06 04:03:45;;;;;;;10.23;6.10;;;1.00;99.90;;;;;;5053582;28;20049;-67
2022/03/06 04:06:11;;;;;;;12.10;5.15;;;1.00;99.90;;;;;;5049833;28;20506;-66
2022/03/06 04:08:36;;;;;;;11.75;5.53;;;0.90;99.90;;;;;;5042026;28;20049;-66
2022/03/06 04:11:05;;;;;;;10.82;5.80;;;0.90;99.90;;;;;;5040272;28;20140;-67
2022/03/06 04:13:31;;;;;;;14.25;5.78;;;0.90;99.90;;;;;;5035323;28;20080;-66
2022/03/06 04:15:56;;;;;;;14.30;5.63;;;0.90;99.90;;;;;;5036193;28;20072;-66
2022/03/06 04:18:22;;;;;;;12.70;5.80;;;0.80;99.90;;;;;;5046637;28;20379;-66
2022/03/06 04:20:48;;;;;;;14.40;6.38;;;0.70;99.90;;;;;;5054994;28;20091;-66
2022/03/06 04:23:13;;;;;;;9.10;5.80;;;0.80;99.90;;;;;;5035112;28;20375;-66
2022/03/06 04:25:40;;;;;;;13.48;5.55;;;0.60;99.90;;;;;;5044531;28;20056;-67
2022/03/06 04:28:06;;;;;;;10.43;5.90;;;0.60;99.90;;;;;;5054391;28;20413;-66
2022/03/06 04:30:31;;;;;;;15.02;5.53;;;0.60;99.90;;;;;;5048436;28;20050;-66
2022/03/06 04:32:57;;;;;;;11.32;6.00;;;0.60;99.90;;;;;;5034658;28;20037;-66
2022/03/06 04:35:23;;;;;;;12.55;6.28;;;0.50;99.90;;;;;;5023918;28;20080;-67
2022/03/06 04:37:48;;;;;;;10.60;5.55;;;0.50;99.90;;;;;;5052111;28;20437;-66
2022/03/06 04:40:14;;;;;;;11.68;6.07;;;0.50;99.90;;;;;;5053401;28;20044;-65
2022/03/06 04:42:41;;;;;;;13.30;5.78;;;0.40;99.90;;;;;;5048578;28;20049;-66
2022/03/06 04:45:07;;;;;;;9.95;5.72;;;0.40;99.90;;;;;;5018771;28;20045;-66
2022/03/06 04:47:33;;;;;;;12.80;6.80;;;0.40;99.90;;;;;;5036668;28;20429;-66
2022/03/06 04:49:59;;;;;;;11.88;5.40;;;0.30;99.90;;;;;;5040138;28;20034;-66
2022/03/06 04:52:25;;;;;;;9.18;6.10;;;0.30;99.90;;;;;;5034518;28;20137;-67
2022/03/06 04:54:50;;;;;;;10.05;5.85;;;0.20;99.90;;;;;;5040136;28;20041;-67
2022/03/06 04:57:16;;;;;;;12.75;5.85;;;0.20;99.90;;;;;;5052622;28;20505;-66
2022/03/06 04:59:41;;;;;;;9.88;5.63;;;0.20;99.90;;;;;;5032802;28;20056;-66
2022/03/06 05:02:07;;;;;;;9.77;5.50;;;0.20;99.90;;;;;;5020000;28;20033;-67
2022/03/06 05:04:33;;;;;;;15.80;5.95;;;0.20;99.90;;;;;;5060763;28;20048;-67
2022/03/06 05:06:59;;;;;;;13.70;5.75;;;0.20;99.90;;;;;;5058976;28;20091;-67
2022/03/06 05:09:24;;;;;;;11.60;5.35;;;0.10;99.90;;;;;;5039234;28;20403;-67
2022/03/06 05:11:50;;;;;;;11.00;5.38;;;0.10;99.90;;;;;;5032283;28;20052;-66
2022/03/06 05:14:16;;;;;;;12.68;5.18;;;0.10;99.90;;;;;;5053152;28;20045;-66
2022/03/06 05:16:42;;;;;;;18.17;4.80;;;0.10;99.90;;;;;;5037277;28;20050;-66
2022/03/06 05:19:07;;;;;;;12.02;4.82;;;0.10;99.90;;;;;;5033991;28;20120;-66
2022/03/06 05:21:33;;;;;;;8.98;4.22;;;0.00;99.90;;;;;;5033912;28;20049;-65
2022/03/06 05:23:59;;;;;;;10.45;4.72;;;0.00;99.90;;;;;;5050532;28;20037;-66
2022/03/06 05:26:24;;;;;;;8.25;4.53;;;0.00;99.90;;;;;;5050553;28;20068;-66
2022/03/06 05:28:50;;;;;;;8.02;4.32;;;0.00;99.90;;;;;;5024024;28;20106;-66
2022/03/06 05:31:16;;;;;;;12.85;4.63;;;0.00;99.90;;;;;;5032071;28;20045;-66
2022/03/06 05:33:41;;;;;;;18.20;4.97;;;0.00;99.90;;;;;;5035504;28;20053;-65
2022/03/06 05:36:07;;;;;;;9.38;4.78;;;0.00;99.90;;;;;;5046719;28;20029;-66
2022/03/06 05:38:33;;;;;;;9.73;4.47;;;-0.10;99.90;;;;;;5033727;28;20042;-66
2022/03/06 05:40:58;;;;;;;10.80;4.97;;;-0.10;99.90;;;;;;5017767;28;20486;-65
2022/03/06 05:43:24;;;;;;;8.85;4.63;;;-0.10;99.90;;;;;;5052746;28;20115;-66
2022/03/06 05:45:51;;;;;;;11.50;5.53;;;-0.10;99.90;;;;;;5051926;28;20045;-66
2022/03/06 05:48:21;;;;;;;10.17;5.03;;;-0.10;99.90;;;;;;5052788;28;20146;-65
2022/03/06 05:50:47;;;;;;;16.60;5.30;;;-0.10;99.90;;;;;;5035425;28;20059;-66
2022/03/06 05:53:13;;;;;;;12.05;4.93;;;-0.20;99.90;;;;;;5053006;28;20040;-66
2022/03/06 05:55:39;;;;;;;8.27;4.70;;;-0.20;99.90;;;;;;5048532;28;20363;-66
2022/03/06 05:58:04;;;;;;;9.80;5.05;;;-0.20;99.90;;;;;;5031148;28;20046;-66
2022/03/06 06:00:30;;;;;;;8.73;5.03;;;-0.30;99.90;;;;;;5042352;28;20129;-65
2022/03/06 06:02:56;;;;;;;12.25;5.68;;;-0.30;99.90;;;;;;5032560;28;20046;-66
2022/03/06 06:05:22;;;;;;;13.70;5.50;;;-0.40;99.90;;;;;;5047875;28;20041;-66
2022/03/06 06:07:49;;;;;;;11.68;5.57;;;-0.40;99.90;;;;;;5052934;28;20128;-67
2022/03/06 06:10:15;;;;;;;9.73;5.05;;;-0.40;99.90;;;;;;5030784;28;20041;-66
2022/03/06 06:12:41;;;;;;;8.07;4.78;;;-0.40;99.90;;;;;;5044043;28;20120;-66
2022/03/06 06:15:08;;;;;;;11.70;4.82;;;-0.40;99.90;;;;;;5034492;28;20090;-67
2022/03/06 06:17:34;;;;;;;10.98;5.30;;;-0.40;99.90;;;;;;5033002;28;20053;-66
2022/03/06 06:20:00;;;;;;;12.23;5.07;;;-0.40;99.90;;;;;;5038990;28;20040;-66
2022/03/06 06:22:28;;;;;;;7.85;4.93;;;-0.40;99.90;;;;;;5051791;28;20084;-66
2022/03/06 06:24:54;;;;;;;9.35;4.07;;;-0.50;99.90;;;;;;5034801;28;20048;-66
2022/03/06 06:27:20;;;;;;;6.50;4.00;;;-0.40;99.90;;;;;;5051586;28;20042;-65
2022/03/06 06:29:46;;;;;;;7.97;4.30;;;-0.40;99.90;;;;;;5044197;28;20044;-66
2022/03/06 06:32:11;;;;;;;9.23;4.00;;;-0.40;99.90;;;;;;5034329;28;20052;-65
2022/03/06 06:34:37;;;;;;;8.15;4.15;;;-0.40;99.90;;;;;;5051985;28;20041;-65
2022/03/06 06:37:03;;;;;;;9.05;3.50;;;-0.40;99.90;;;;;;5042749;28;20053;-67
2022/03/06 06:39:28;;;;;;;8.48;3.80;;;-0.40;99.90;;;;;;5032712;28;20042;-66
2022/03/06 06:41:54;;;;;;;7.25;3.88;;;-0.40;99.90;;;;;;5016615;28;20096;-66
2022/03/06 06:44:20;;;;;;;6.55;3.10;;;-0.40;99.90;;;;;;5050505;28;20640;-66
2022/03/06 06:46:45;;;;;;;6.57;3.38;;;-0.40;99.90;;;;;;5022067;28;20041;-67
2022/03/06 06:49:11;;;;;;;6.13;3.35;;;-0.40;99.90;;;;;;5052581;28;20402;-66
2022/03/06 06:51:38;;;;;;;6.97;3.50;;;-0.30;99.90;;;;;;5052392;28;20509;-66
2022/03/06 06:54:04;;;;;;;5.00;2.97;;;-0.30;99.90;;;;;;5050254;28;20049;-67
2022/03/06 06:56:31;;;;;;;6.50;3.20;;;-0.30;99.90;;;;;;5048091;28;20054;-66
2022/03/06 06:58:56;;;;;;;5.32;2.70;;;-0.20;99.90;;;;;;5056280;28;20053;-65
2022/03/06 07:01:22;;;;;;;5.20;3.20;;;-0.20;99.90;;;;;;5056200;28;20553;-65
2022/03/06 07:03:48;;;;;;;7.13;2.90;;;-0.20;99.90;;;;;;5053205;28;20045;-66
2022/03/06 07:06:14;;;;;;;6.05;2.97;;;-0.10;99.90;;;;;;5050763;28;20045;-66
2022/03/06 07:08:40;;;;;;;8.00;2.90;;;0.00;99.90;;;;;;5046186;28;20041;-66
2022/03/06 07:11:05;;;;;;;4.95;2.63;;;0.00;99.90;;;;;;5055917;28;20045;-65
2022/03/06 07:13:31;;;;;;;3.80;2.53;;;0.10;99.90;;;;;;5055202;28;20029;-67
2022/03/06 07:15:58;;;;;;;6.53;3.15;;;0.20;99.90;;;;;;5055611;28;20489;-66
2022/03/06 07:18:23;;;;;;;4.07;2.53;;;0.20;99.90;;;;;;5037767;28;20103;-67
2022/03/06 07:20:49;;;;;;;5.88;2.92;;;0.40;99.90;;;;;;5036123;28;20037;-67
2022/03/06 07:23:15;;;;;;;4.88;2.90;;;0.50;99.90;;;;;;5018350;28;20049;-66
2022/03/06 07:25:41;;;;;;;5.07;2.90;;;0.70;99.90;;;;;;5049675;28;20045;-65
2022/03/06 07:28:07;;;;;;;6.53;3.03;;;0.70;99.90;;;;;;5068254;28;20037;-66
2022/03/06 07:30:33;;;;;;;4.53;2.63;;;0.90;99.90;;;;;;5056156;28;20052;-65
2022/03/06 07:33:00;;;;;;;6.50;2.75;;;0.90;99.90;;;;;;5050125;28;20034;-66
2022/03/06 07:35:26;;;;;;;6.90;2.72;;;1.10;99.90;;;;;;5035890;28;20096;-65
2022/03/06 07:37:53;;;;;;;5.68;2.80;;;1.20;99.90;;;;;;5038085;28;20054;-66
2022/03/06 07:40:20;;;;;;;7.22;2.55;;;1.20;99.90;;;;;;5044346;28;20376;-67
2022/03/06 07:42:47;;;;;;;5.75;2.50;;;1.40;99.90;;;;;;5054978;28;20047;-67
2022/03/06 07:45:13;;;;;;;4.55;2.15;;;1.50;99.90;;;;;;5044664;28;20041;-66
2022/03/06 07:47:39;;;;;;;5.45;2.97;;;1.60;99.90;;;;;;5017991;28;20057;-67
2022/03/06 07:50:07;;;;;;;4.68;2.90;;;1.70;99.90;;;;;;5035731;28;20041;-66
2022/03/06 07:52:33;;;;;;;5.30;2.70;;;1.90;99.90;;;;;;5055110;28;20045;-67
2022/03/06 07:54:59;;;;;;;6.68;2.63;;;2.20;99.90;;;;;;5053486;28;20048;-66
2022/03/06 07:57:25;;;;;;;7.07;2.40;;;2.40;99.90;;;;;;5038619;28;20103;-66
2022/03/06 07:59:51;;;;;;;5.63;2.72;;;2.40;99.90;;;;;;5055883;28;20045;-66
2022/03/06 08:02:16;;;;;;;5.60;2.25;;;2.40;99.90;;;;;;5033116;28;20948;-67
2022/03/06 08:04:42;;;;;;;5.15;2.38;;;2.50;99.90;;;;;;5035185;28;20049;-66
2022/03/06 08:07:08;;;;;;;5.95;2.63;;;2.50;99.90;;;;;;5034623;28;20045;-67
2022/03/06 08:09:33;;;;;;;6.25;2.95;;;2.60;99.90;;;;;;5035287;28;20041;-67
2022/03/06 08:12:00;;;;;;;5.03;2.40;;;2.60;99.90;;;;;;5046001;28;20513;-66
2022/03/06 08:14:27;;;;;;;4.50;2.40;;;2.70;99.90;;;;;;5054878;28;20090;-67
2022/03/06 08:16:53;;;;;;;3.65;2.30;;;2.80;99.90;;;;;;5037096;28;20049;-66
2022/03/06 08:19:18;;;;;;;6.07;2.33;;;2.80;99.90;;;;;;5048529;28;20044;-66
2022/03/06 08:21:44;;;;;;;6.30;2.58;;;2.80;99.90;;;;;;5049724;28;20047;-66
2022/03/06 08:24:10;;;;;;;5.60;2.85;;;2.80;99.90;;;;;;5053842;28;20505;-67
2022/03/06 08:26:35;;;;;;;7.45;2.83;;;2.90;99.90;;;;;;5032891;28;20505;-67
2022/03/06 08:29:01;;;;;;;6.25;2.75;;;2.90;99.90;;;;;;5051920;28;20041;-66
2022/03/06 08:31:26;;;;;;;5.60;2.80;;;3.00;99.90;;;;;;5055617;28;20049;-66
2022/03/06 08:33:53;;;;;;;5.35;2.75;;;3.20;99.90;;;;;;5061300;28;20037;-67
2022/03/06 08:36:19;;;;;;;7.25;2.72;;;3.30;99.90;;;;;;5050565;28;20053;-66
2022/03/06 08:38:44;;;;;;;3.40;2.13;;;3.40;99.90;;;;;;5046494;28;20508;-67
2022/03/06 08:41:10;;;;;;;4.10;2.42;;;3.40;99.90;;;;;;5036305;28;20033;-66
2022/03/06 08:43:36;;;;;;;5.05;2.40;;;3.50;99.90;;;;;;5046529;28;20548;-66
2022/03/06 08:46:03;;;;;;;5.68;2.75;;;3.50;99.90;;;;;;5058820;28;20041;-66
2022/03/06 08:48:29;;;;;;;5.30;2.15;;;3.50;99.90;;;;;;5054227;28;20447;-66
2022/03/06 08:50:55;;;;;;;3.50;1.73;;;3.50;99.90;;;;;;5054032;28;20604;-66
2022/03/06 08:53:20;;;;;;;7.53;2.17;;;3.50;99.90;;;;;;5040476;28;20049;-65
2022/03/06 08:55:46;;;;;;;4.13;2.20;;;3.50;99.90;;;;;;5047667;28;20042;-66
2022/03/06 08:58:12;;;;;;;4.25;2.10;;;3.60;99.90;;;;;;5038858;28;20045;-66
2022/03/06 09:00:37;;;;;;;5.15;2.65;;;3.70;99.90;;;;;;5035847;28;20045;-66
2022/03/06 09:03:03;;;;;;;4.80;2.13;;;3.90;99.90;;;;;;5039361;28;20410;-66
2022/03/06 09:05:29;;;;;;;5.32;2.08;;;4.00;99.90;;;;;;5045589;28;20045;-65
2022/03/06 09:07:56;;;;;;;4.10;2.50;;;4.10;99.90;;;;;;5052524;28;20040;-66
2022/03/06 09:10:22;;;;;;;7.78;2.50;;;4.30;99.90;;;;;;5054955;28;20052;-66
2022/03/06 09:12:48;;;;;;;6.38;2.17;;;4.90;99.90;;;;;;5031778;28;20095;-66
2022/03/06 09:15:14;;;;;;;6.38;2.63;;;4.40;99.90;;;;;;5051379;28;20128;-66
2022/03/06 09:17:40;;;;;;;9.85;5.18;;;4.40;99.90;;;;;;5050788;28;20055;-66
2022/03/06 09:20:07;;;;;;;5.30;2.05;;;4.60;99.90;;;;;;5052534;28;20171;-66
2022/03/06 09:22:33;;;;;;;7.85;2.70;;;4.60;99.90;;;;;;5044627;28;20040;-66
2022/03/06 09:24:58;;;;;;;6.50;2.40;;;4.60;99.90;;;;;;5049367;28;20034;-66
2022/03/06 09:27:24;;;;;;;8.30;2.40;;;4.70;99.90;;;;;;5061961;28;20080;-66
2022/03/06 09:29:49;;;;;;;6.40;2.40;;;4.70;99.90;;;;;;5033371;28;20037;-66
2022/03/06 09:32:15;;;;;;;5.38;2.55;;;4.80;99.90;;;;;;5046948;28;20095;-67
2022/03/06 09:34:42;;;;;;;5.28;2.20;;;4.80;99.80;;;;;;5035078;28;20049;-67
2022/03/06 09:37:08;;;;;;;6.93;2.78;;;4.90;99.90;;;;;;5031632;28;20162;-66
2022/03/06 09:39:34;;;;;;;4.90;2.40;;;4.90;99.60;;;;;;5020697;28;20428;-67
2022/03/06 09:42:00;;;;;;;5.80;2.20;;;4.90;99.50;;;;;;5033237;28;20413;-67
2022/03/06 09:44:27;;;;;;;11.15;2.67;;;5.00;99.90;;;;;;5032853;28;20095;-67
2022/03/06 09:46:56;;;;;;;5.68;2.58;;;5.10;99.50;;;;;;5028155;28;20045;-67
2022/03/06 09:49:23;;;;;;;6.70;2.63;;;5.30;99.90;;;;;;5031940;28;20053;-67
2022/03/06 09:51:49;;;;;;;6.10;2.55;;;5.60;99.90;;;;;;5024528;28;20037;-67
2022/03/06 09:54:16;;;;;;;5.72;2.53;;;5.80;99.90;;;;;;5031679;28;20045;-66
2022/03/06 09:56:42;;;;;;;5.60;2.60;;;5.90;99.70;;;;;;5026204;28;20503;-66
2022/03/06 09:59:09;;;;;;;5.57;2.65;;;6.30;99.40;;;;;;5023353;28;20404;-66
2022/03/06 10:01:35;;;;;;;7.40;2.60;;;6.80;99.90;;;;;;5025955;28;20434;-67
2022/03/06 10:04:26;;;;;;;7.32;2.85;;;7.10;99.20;;;;;;5024127;28;20418;-66
2022/03/06 10:07:11;;;;;;;6.32;2.83;;;7.30;96.00;;;;;;5033172;28;20050;-67
2022/03/06 10:09:44;;;;;;;7.13;2.85;;;7.60;97.00;;;;;;5032725;28;20478;-66
2022/03/06 10:12:29;;;;;;;6.00;2.80;;;7.80;94.10;;;;;;5030310;28;20498;-66
2022/03/06 10:15:01;;;;;;;4.47;2.50;;;7.30;92.90;;;;;;5033118;28;20053;-66
2022/03/06 10:17:29;;;;;;;5.90;2.50;;;7.20;92.90;;;;;;5031437;28;20051;-67
2022/03/06 10:19:56;;;;;;;4.78;2.70;;;6.90;93.90;;;;;;5032349;28;20415;-67
2022/03/06 10:22:30;;;;;;;6.72;2.65;;;6.70;94.00;;;;;;5031781;28;20049;-67
2022/03/06 10:24:58;;;;;;;4.22;2.58;;;6.60;95.10;;;;;;5036389;28;20053;-66
2022/03/06 10:27:53;;;;;;;7.25;2.83;;;6.80;94.70;;;;;;5030891;28;20417;-66
2022/03/06 10:30:37;;;;;;;6.10;2.53;;;6.80;94.10;;;;;;5031284;28;20076;-66
2022/03/06 10:33:10;;;;;;;6.95;2.55;;;6.80;94.70;;;;;;5028136;28;20557;-67
2022/03/06 10:35:41;;;;;;;4.72;2.28;;;6.90;94.90;;;;;;5029642;28;20051;-66
2022/03/06 10:38:28;;;;;;;5.10;2.53;;;7.10;94.40;;;;;;5047500;28;20514;-66
2022/03/06 10:40:55;;;;;;;5.10;2.55;;;7.20;94.00;;;;;;5022991;28;20045;-66
2022/03/06 10:43:25;;;;;;;5.95;3.00;;;7.10;94.50;;;;;;5041672;28;20290;-66
2022/03/06 10:46:06;;;;;;;6.70;2.70;;;6.90;93.80;;;;;;5050259;28;20795;-67
2022/03/06 10:48:31;;;;;;;5.75;2.67;;;7.10;95.10;;;;;;5048467;28;20080;-66
2022/03/06 10:51:05;;;;;;;6.15;2.55;;;7.50;94.00;;;;;;5048444;28;20137;-67
2022/03/06 10:53:31;;;;;;;6.50;2.40;;;7.80;93.50;;;;;;5049116;28;20054;-66
2022/03/06 10:56:10;;;;;;;4.80;2.60;;;8.10;93.20;;;;;;5034615;28;20406;-66
2022/03/06 10:58:38;;;;;;;3.70;2.28;;;8.00;92.00;;;;;;5045398;28;20492;-67
2022/03/06 11:01:04;;;;;;;5.72;2.42;;;8.20;91.70;;;;;;5048799;28;20053;-65
2022/03/06 11:03:32;;;;;;;7.85;3.13;;;8.10;91.60;;;;;;5049118;28;20056;-67
2022/03/06 11:05:59;;;;;;;6.85;2.65;;;8.30;91.60;;;;;;5038590;28;20049;-66
2022/03/06 11:08:26;;;;;;;4.93;2.40;;;8.40;91.20;;;;;;5048797;28;20040;-67
2022/03/06 11:10:52;;;;;;;5.50;2.80;;;8.20;91.40;;;;;;5046658;28;20052;-67
2022/03/06 11:13:17;;;;;;;8.82;3.22;;;8.80;93.20;;;;;;5041547;28;20499;-67
2022/03/06 11:15:43;;;;;;;8.57;2.58;;;9.40;92.30;;;;;;5043371;28;20578;-67
2022/03/06 11:18:09;;;;;;;4.95;2.78;;;9.50;91.60;;;;;;5032604;28;20554;-67
2022/03/06 11:20:37;;;;;;;5.57;2.80;;;9.40;90.10;;;;;;5047799;28;20044;-66
2022/03/06 11:23:10;;;;;;;4.47;2.45;;;9.60;90.10;;;;;;5038664;28;20502;-67
2022/03/06 11:25:45;;;;;;;5.13;2.45;;;9.20;90.10;;;;;;5043571;28;20056;-66
2022/03/06 11:28:31;;;;;;;6.13;2.55;;;9.00;89.00;;;;;;5048416;28;20049;-67
2022/03/06 11:31:00;;;;;;;7.22;2.60;;;9.20;88.30;;;;;;5033810;28;20094;-67
2022/03/06 11:33:26;;;;;;;5.55;2.30;;;8.60;90.20;;;;;;5048535;28;20120;-67
2022/03/06 11:35:52;;;;;;;8.25;3.30;;;8.30;89.50;;;;;;5048742;28;20053;-67
2022/03/06 11:38:17;;;;;;;6.63;2.50;;;8.00;90.70;;;;;;5048000;28;20060;-67
2022/03/06 11:40:49;;;;;;;5.85;2.95;;;7.60;91.60;;;;;;5049043;28;20053;-66
2022/03/06 11:43:30;;;;;;;6.30;2.65;;;8.10;90.80;;;;;;5050725;28;20368;-66
2022/03/06 11:46:11;;;;;;;5.35;2.70;;;7.50;91.40;;;;;;5052076;28;20063;-67
2022/03/06 11:48:37;;;;;;;7.75;2.47;;;7.40;92.10;;;;;;5046027;28;20438;-66
2022/03/06 11:51:17;;;;;;;5.28;2.75;;;7.00;93.10;;;;;;5046524;28;20045;-67
2022/03/06 11:53:52;;;;;;;7.60;2.85;;;7.20;92.70;;;;;;5053325;28;20044;-66
2022/03/06 11:56:37;;;;;;;7.68;3.75;;;7.20;93.00;;;;;;5048832;28;20485;-66
2022/03/06 11:59:06;;;;;;;6.78;2.67;;;7.00;94.10;;;;;;5035606;28;20386;-67
2022/03/06 12:01:44;;;;;;;7.22;2.70;;;6.70;94.80;;;;;;5037223;28;20040;-66
2022/03/06 12:04:23;;;;;;;8.98;3.78;;;6.90;94.70;;;;;;5055905;28;20048;-67
2022/03/06 12:06:52;;;;;;;7.53;3.13;;;6.70;95.40;;;;;;5036239;28;20084;-67
2022/03/06 12:09:24;;;;;;;5.05;2.60;;;6.40;96.20;;;;;;5052380;28;20045;-67
2022/03/06 12:11:51;;;;;;;3.97;2.30;;;6.50;95.90;;;;;;5044006;28;20562;-67
2022/03/06 12:14:36;;;;;;;5.95;2.70;;;7.10;95.90;;;;;;5019909;28;20088;-66
2022/03/06 12:17:02;;;;;;;6.47;3.45;;;6.50;96.00;;;;;;5032766;28;20045;-66
2022/03/06 12:19:28;;;;;;;9.32;2.63;;;6.40;96.50;;;;;;5049961;28;20156;-66
2022/03/06 12:22:34;;;;;;;7.03;2.58;;;6.50;96.20;;;;;;5056202;28;20051;-67
2022/03/06 12:25:08;;;;;;;4.85;2.42;;;6.50;97.10;;;;;;5052380;28;20834;-67
2022/03/06 12:27:39;;;;;;;6.25;2.50;;;6.60;96.50;;;;;;5047180;28;20057;-66
2022/03/06 12:30:08;;;;;;;10.73;3.70;;;6.90;95.80;;;;;;5052457;28;20102;-67
2022/03/06 12:32:35;;;;;;;7.50;2.88;;;6.80;96.50;;;;;;5048372;28;20557;-66
2022/03/06 12:35:08;;;;;;;6.93;2.47;;;6.70;96.70;;;;;;5044445;28;20062;-66
2022/03/06 12:37:38;;;;;;;6.32;2.92;;;6.90;96.20;;;;;;5050236;28;20049;-67
2022/03/06 12:40:06;;;;;;;6.05;2.60;;;6.70;96.30;;;;;;5050388;28;20045;-65
2022/03/06 12:42:34;;;;;;;6.70;2.70;;;6.50;97.10;;;;;;5045340;28;20037;-66
2022/03/06 12:45:19;;;;;;;4.53;2.83;;;6.40;97.40;;;;;;5048738;28;20437;-66
2022/03/06 12:47:46;;;;;;;9.60;3.10;;;6.40;97.30;;;;;;5030296;28;20052;-67
2022/03/06 12:50:16;;;;;;;5.43;2.92;;;6.20;97.50;;;;;;5049677;28;20052;-67
2022/03/06 12:52:43;;;;;;;5.45;3.03;;;6.20;98.40;;;;;;5051396;28;20037;-66
2022/03/06 12:55:16;;;;;;;4.97;2.70;;;6.30;98.10;;;;;;5032642;28;20102;-66